Home > Products > Valid Products > MTR

000
SAUS44 KLIX 181052
MTRBVE
METAR KBVE 181051Z AUTO 03009KT 9SM OVC009 17/16 A3000 RMK AO2
SLP160 T01720156





000
SAUS44 KLIX 181040
MTRBVE
SPECI KBVE 181039Z AUTO 04010G17KT 9SM OVC009 17/16 A3000 RMK AO2
T01720156





000
SAUS44 KLIX 180952
MTRBVE
METAR KBVE 180951Z AUTO 04009KT 10SM OVC010 17/16 A3002 RMK AO2
SLP165 T01720156





000
SAUS44 KLIX 180852
MTRBVE
METAR KBVE 180851Z AUTO 03008KT 10SM OVC010 17/16 A3002 RMK AO2
SLP166 T01720161 55021





000
SAUS44 KLIX 180752
MTRBVE
METAR KBVE 180751Z AUTO 04009KT 10SM OVC012 17/16 A3002 RMK AO2
SLP166 T01720156





000
SAUS44 KLIX 180653
MTRBVE
METAR KBVE 180651Z AUTO 04008KT 8SM OVC013 17/16 A3005 RMK AO2
SLP175 T01720161





000
SAUS44 KLIX 180646
MTRBVE
SPECI KBVE 180644Z AUTO 04009G16KT 8SM OVC013 17/16 A3005 RMK AO2
T01720161





000
SAUS44 KLIX 180552
MTRBVE
METAR KBVE 180551Z AUTO 04009KT 7SM OVC015 17/16 A3009 RMK AO2
SLP187 60037 T01720161 10178 20167 402170133 58002





000
SAUS44 KLIX 180550
MTRBVE
SPECI KBVE 180549Z AUTO 04011KT 7SM OVC015 17/16 A3008 RMK AO2





000
SAUS44 KLIX 180541
MTRBVE
SPECI KBVE 180540Z AUTO 03010G18KT 7SM OVC013 17/16 A3009 RMK AO2
T01720161





000
SAUS44 KLIX 180453
MTRBVE
METAR KBVE 180451Z AUTO 03011G17KT 8SM OVC015 17/16 A3010 RMK AO2
RAB14E20 SLP193 P0000 T01720161





000
SAUS44 KLIX 180436
MTRBVE
SPECI KBVE 180434Z AUTO 03013G19KT 7SM OVC013 18/16 A3010 RMK AO2
RAB14E20 P0000 T01780161





000
SAUS44 KLIX 180353
MTRBVE
METAR KBVE 180351Z AUTO 36007KT 8SM BKN008 17/16 A3009 RMK AO2 PK
WND 09031/0313 RAE35 PRESRR SLP189 P0002 T01720161





000
SAUS44 KLIX 180349
MTRBVE
SPECI KBVE 180348Z AUTO 36006G17KT 8SM BKN008 17/16 A3009 RMK AO2 PK
WND 09031/0313 RAE35 P0002





000
SAUS44 KLIX 180340
MTRBVE
SPECI KBVE 180339Z AUTO 05010G23KT 9SM SCT008 BKN110 17/16 A3008 RMK
AO2 PK WND 09031/0313 RAE35 PRESRR P0002 T01720161





000
SAUS44 KLIX 180252
MTRBVE
METAR KBVE 180251Z AUTO 10021G28KT 4SM -RA BR OVC110 17/17 A3006 RMK
AO2 PK WND 10028/0250 PRESFR SLP178 P0005 60035 T01720167 58028





000
SAUS44 KLIX 180152
MTRBVE
METAR KBVE 180151Z AUTO 09015KT 5SM -RA BR BKN110 17/16 A3012 RMK
AO2 SLP199 P0005 T01720161





000
SAUS44 KLIX 180052
MTRBVE
METAR KBVE 180051Z AUTO 08012KT 3SM -RA BR OVC095 17/16 A3011 RMK
AO2 PRESFR SLP197 P0025 T01670161





000
SAUS44 KLIX 180033
MTRBVE
SPECI KBVE 180032Z AUTO 07007KT 3SM RA BR SCT024 BKN090 OVC110 17/16
A3014 RMK AO2 P0018 T01670161





000
SAUS44 KLIX 180017
MTRBVE
SPECI KBVE 180016Z AUTO 09006KT 3SM RA BR SCT022 BKN028 OVC080 17/16
A3015 RMK AO2 P0013 T01670161





000
SAUS44 KLIX 180001
MTRBVE
SPECI KBVE 180000Z AUTO 09005KT 2 1/2SM RA BR BKN065 OVC095 17/16
A3014 RMK AO2 P0005 T01670161





000
SAUS44 KLIX 172352
MTRBVE
METAR KBVE 172351Z AUTO 10007KT 1 3/4SM +RA BR BKN065 BKN090 OVC110
17/16 A3014 RMK AO2 SLP206 P0017 60023 T01720161 10194 20172 53000





000
SAUS44 KLIX 172338
MTRBVE
SPECI KBVE 172337Z AUTO 11007KT 2 1/2SM RA BR SCT085 OVC110 17/16
A3015 RMK AO2 P0008 T01720161





000
SAUS44 KLIX 172252
MTRBVE
METAR KBVE 172251Z AUTO 08009KT 3SM -RA BR OVC110 17/16 A3013 RMK
AO2 RAB20 SLP203 P0002 T01720161





000
SAUS44 KLIX 172152
MTRBVE
METAR KBVE 172151Z AUTO 08010KT 5SM BR FEW013 SCT022 18/16 A3014 RMK
AO2 RAE19 SLP206 P0002 T01780161





000
SAUS44 KLIX 172148
MTRBVE
SPECI KBVE 172147Z AUTO 08010KT 5SM BR FEW013 SCT022 SCT050 18/16
A3014 RMK AO2 RAE19 P0002





000
SAUS44 KLIX 172141
MTRBVE
SPECI KBVE 172139Z AUTO 09011KT 5SM BR SCT014 BKN022 BKN050 18/17
A3014 RMK AO2 RAE19 P0002 T01780167





000
SAUS44 KLIX 172052
MTRBVE
METAR KBVE 172051Z AUTO 11005KT 3SM -RA BR OVC010 18/17 A3014 RMK
AO2 CIG 009V015 SLP205 P0002 60002 T01780167 57002





000
SAUS44 KLIX 172025
MTRBVE
SPECI KBVE 172024Z AUTO 09010KT 2 1/2SM -RA BR BKN013 OVC017 18/17
A3015 RMK AO2 P0001 T01780167





000
SAUS44 KLIX 171953
MTRBVE
METAR KBVE 171951Z AUTO 08012KT 4SM -RA BR BKN014 BKN034 OVC065
18/17 A3014 RMK AO2 RAB47 SLP207 P0000 T01830167





000
SAUS44 KLIX 171903
MTRBVE
SPECI KBVE 171902Z AUTO 06010KT 5SM BR BKN010 BKN029 OVC070 18/17
A3015 RMK AO2 T01830167





000
SAUS44 KLIX 171852
MTRBVE
METAR KBVE 171851Z AUTO 08008G18KT 5SM BR SCT010 BKN027 OVC070 19/17
A3014 RMK AO2 SLP207 T01890167





000
SAUS44 KLIX 171752
MTRBVE
METAR KBVE 171751Z AUTO 06008KT 6SM BR BKN023 19/17 A3016 RMK AO2
SLP211 T01940172 10217 20139 58002





000
SAUS44 KLIX 171747
MTRBVE
SPECI KBVE 171742Z AUTO 06006KT 6SM HZ BKN025 BKN029 BKN060 20/17
A3017 RMK AO2 T02000172





000
SAUS44 KLIX 171652
MTRBVE
METAR KBVE 171651Z AUTO 05005KT 8SM FEW029 22/17 A3018 RMK AO2
SLP220 T02170172





000
SAUS44 KLIX 171552
MTRBVE
METAR KBVE 171551Z AUTO 06007KT 7SM CLR 21/17 A3017 RMK AO2 SLP215
T02060172





000
SAUS44 KLIX 171453
MTRBVE
METAR KBVE 171451Z AUTO 05005KT 8SM CLR 19/16 A3016 RMK AO2 SLP213
T01940161 51008





000
SAUS44 KLIX 171352
MTRBVE
METAR KBVE 171351Z AUTO VRB04KT 10SM SCT045 19/14 A3016 RMK AO2
SLP211 T01890139





000
SAUS44 KLIX 171252
MTRBVE
METAR KBVE 171251Z AUTO VRB03KT 10SM CLR 15/13 A3016 RMK AO2 SLP212
T01500133





000
SAUS44 KLIX 171152
MTRBVE
METAR KBVE 171151Z AUTO 35003KT 10SM CLR 14/12 A3014 RMK AO2 SLP205
T01390117 10161 20133 53009





000
SAUS44 KLIX 171052
MTRBVE
METAR KBVE 171051Z AUTO 00000KT 10SM CLR 14/12 A3010 RMK AO2 SLP191
T01440117





000
SAUS44 KLIX 170952
MTRBVE
METAR KBVE 170951Z AUTO 07003KT 10SM SCT039 15/12 A3010 RMK AO2
SLP191 T01500117





000
SAUS44 KLIX 170852
MTRBVE
METAR KBVE 170851Z AUTO 12003KT 10SM OVC037 16/12 A3011 RMK AO2
SLP196 T01560117 58009





000
SAUS44 KLIX 170752
MTRBVE
METAR KBVE 170751Z AUTO 12007KT 10SM OVC034 16/11 A3012 RMK AO2
SLP198 T01610106





000
SAUS44 KLIX 170652
MTRBVE
METAR KBVE 170651Z AUTO 12004KT 10SM OVC035 16/11 A3014 RMK AO2
SLP204 T01560111





000
SAUS44 KLIX 170552
MTRBVE
METAR KBVE 170551Z AUTO 12009KT 10SM OVC036 16/09 A3014 RMK AO2
SLP206 T01610094 10161 20133 401610117 58008





000
SAUS44 KLIX 170452
MTRBVE
METAR KBVE 170451Z AUTO 06003KT 10SM OVC034 15/11 A3015 RMK AO2
SLP210 T01500106





000
SAUS44 KLIX 170352
MTRBVE
METAR KBVE 170351Z AUTO 09005KT 10SM OVC032 14/09 A3016 RMK AO2
SLP212 T01440094





000
SAUS44 KLIX 170252
MTRBVE
METAR KBVE 170251Z AUTO 10007KT 10SM OVC031 14/09 A3016 RMK AO2
SLP214 T01440094 53010





000
SAUS44 KLIX 170201
MTRBVE
SPECI KBVE 170201Z AUTO 10006KT 10SM OVC030 14/08 A3015 RMK AO2
T01440083





000
SAUS44 KLIX 170152
MTRBVE
METAR KBVE 170151Z AUTO 10009KT 10SM OVC029 14/08 A3015 RMK AO2
SLP210 T01440083





000
SAUS44 KLIX 170052
MTRBVE
METAR KBVE 170051Z AUTO 09009KT 10SM OVC029 14/08 A3013 RMK AO2
SLP201 T01390083





000
SAUS44 KLIX 162352
MTRBVE
METAR KBVE 162351Z AUTO 07007KT 10SM BKN029 14/07 A3014 RMK AO2
SLP204 T01390072 10161 20139 56008





000
SAUS44 KLIX 162338
MTRBVE
SPECI KBVE 162337Z AUTO 07005KT 10SM BKN029 14/07 A3013 RMK AO2
T01390072





000
SAUS44 KLIX 162252
MTRBVE
METAR KBVE 162251Z AUTO 06006KT 10SM BKN031 14/07 A3014 RMK AO2
SLP205 T01390067





000
SAUS44 KLIX 162152
MTRBVE
METAR KBVE 162151Z AUTO 05008KT 10SM OVC033 14/07 A3015 RMK AO2
SLP209 T01440072





000
SAUS44 KLIX 162052
MTRBVE
METAR KBVE 162051Z AUTO 03005KT 10SM OVC033 15/07 A3016 RMK AO2
SLP213 T01500072 57015





000
SAUS44 KLIX 161952
MTRBVE
METAR KBVE 161951Z AUTO 05007KT 10SM FEW033 16/07 A3017 RMK AO2
SLP215 T01560072





000
SAUS44 KLIX 161852
MTRBVE
METAR KBVE 161851Z AUTO 03006KT 10SM SCT033 16/08 A3020 RMK AO2
SLP224 T01560078





000
SAUS44 KLIX 161752
MTRBVE
METAR KBVE 161751Z AUTO 06009KT 10SM FEW030 15/08 A3020 RMK AO2
SLP227 T01500078 10156 20122 58009





000
SAUS44 KLIX 161652
MTRBVE
METAR KBVE 161651Z AUTO 06008KT 10SM FEW033 15/07 A3022 RMK AO2
SLP232 T01500072





000
SAUS44 KLIX 161552
MTRBVE
METAR KBVE 161551Z AUTO 06009KT 10SM BKN035 14/07 A3023 RMK AO2
SLP236 T01440067





000
SAUS44 KLIX 161452
MTRBVE
METAR KBVE 161451Z AUTO 05010KT 10SM BKN037 13/06 A3023 RMK AO2
SLP237 T01330061 51013





000
SAUS44 KLIX 161352
MTRBVE
METAR KBVE 161351Z AUTO 06009KT 10SM CLR 13/04 A3022 RMK AO2 SLP232
T01280044





000
SAUS44 KLIX 161252
MTRBVE
METAR KBVE 161251Z AUTO 08009KT 10SM CLR 13/04 A3021 RMK AO2 SLP231
T01280039





000
SAUS44 KLIX 161152
MTRBVE
METAR KBVE 161151Z AUTO 07009KT 10SM CLR 12/04 A3019 RMK AO2 SLP224
T01220044 10133 20117 53016





000
SAUS44 KLIX 161052
MTRBVE
METAR KBVE 161051Z AUTO 06010KT 10SM CLR 12/03 A3018 RMK AO2 SLP218
T01170033





000
SAUS44 KLIX 160952
MTRBVE
METAR KBVE 160951Z AUTO 05011G19KT 10SM CLR 12/03 A3016 RMK AO2
SLP211 T01220033





000
SAUS44 KLIX 160852
MTRBVE
METAR KBVE 160851Z AUTO 04010G17KT 10SM CLR 12/02 A3015 RMK AO2
SLP208 T01220022 55002





000
SAUS44 KLIX 160752
MTRBVE
METAR KBVE 160751Z AUTO 04010G18KT 10SM CLR 12/03 A3015 RMK AO2
SLP208 T01220028





000
SAUS44 KLIX 160652
MTRBVE
METAR KBVE 160651Z AUTO 04011G20KT 10SM CLR 13/03 A3014 RMK AO2
SLP205 T01280028





000
SAUS44 KLIX 160552
MTRBVE
METAR KBVE 160551Z AUTO 03011G21KT 10SM CLR 13/02 A3015 RMK AO2
SLP210 T01330022 10144 20128 402560100 50002





000
SAUS44 KLIX 160452
MTRBVE
METAR KBVE 160451Z AUTO 01011G18KT 10SM CLR 13/03 A3016 RMK AO2
SLP212 T01330028





000
SAUS44 KLIX 160352
MTRBVE
METAR KBVE 160351Z AUTO 35011G24KT 10SM CLR 13/03 A3016 RMK AO2
SLP211 T01330033





000
SAUS44 KLIX 160252
MTRBVE
METAR KBVE 160251Z AUTO 35012G19KT 10SM CLR 14/02 A3015 RMK AO2
SLP208 T01390022 53017





000
SAUS44 KLIX 160153
MTRBVE
METAR KBVE 160151Z AUTO 35012G19KT 330V050 10SM CLR 14/02 A3013 RMK
AO2 SLP202 T01390017





000
SAUS44 KLIX 160052
MTRBVE
METAR KBVE 160051Z AUTO 34011G20KT 10SM CLR 14/01 A3011 RMK AO2
SLP194 T01440011





000
SAUS44 KLIX 152352
MTRBVE
METAR KBVE 152351Z AUTO 34010G16KT 10SM CLR 14/02 A3010 RMK AO2
SLP191 T01440022 10156 20111 53010





000
SAUS44 KLIX 152252
MTRBVE
METAR KBVE 152251Z AUTO 34010KT 10SM CLR 15/03 A3009 RMK AO2 SLP188
T01500028





000
SAUS44 KLIX 152152
MTRBVE
METAR KBVE 152151Z AUTO 35009G18KT 10SM CLR 14/03 A3008 RMK AO2
SLP184 T01440028





000
SAUS44 KLIX 152052
MTRBVE
METAR KBVE 152051Z AUTO 34010G22KT 10SM CLR 15/04 A3007 RMK AO2
SLP181 T01500044 56010





000
SAUS44 KLIX 151952
MTRBVE
METAR KBVE 151951Z AUTO 36007G21KT 330V030 10SM SCT035 14/06 A3007
RMK AO2 SLP184 T01390056





000
SAUS44 KLIX 151853
MTRBVE
METAR KBVE 151851Z AUTO 35014G22KT 10SM FEW028 13/06 A3009 RMK AO2
PK WND 34027/1811 SLP187 T01280056





000
SAUS44 KLIX 151837
MTRBVE
SPECI KBVE 151836Z AUTO 35014G21KT 10SM SCT028 12/06 A3009 RMK AO2
PK WND 34027/1811 T01220056





000
SAUS44 KLIX 151752
MTRBVE
METAR KBVE 151751Z AUTO 34020G29KT 10SM OVC026 11/06 A3010 RMK AO2
PK WND 34029/1751 SLP191 60000 T01110056 10122 20100 50007





000
SAUS44 KLIX 151653
MTRBVE
METAR KBVE 151651Z AUTO 33020G28KT 10SM OVC023 10/05 A3011 RMK AO2
PK WND 34029/1622 SLP195 T01000050





000
SAUS44 KLIX 151552
MTRBVE
METAR KBVE 151551Z AUTO 34019G27KT 10SM OVC022 10/06 A3010 RMK AO2
PK WND 33028/1510 SLP192 T01000056





000
SAUS44 KLIX 151452
MTRBVE
METAR KBVE 151451Z AUTO 34022G29KT 10SM OVC021 10/06 A3008 RMK AO2
PK WND 32032/1402 SLP185 60000 T01000061 51035





000
SAUS44 KLIX 151352
MTRBVE
METAR KBVE 151351Z AUTO 33022G32KT 9SM OVC016 10/08 A3004 RMK AO2 PK
WND 32032/1343 RAB02E43 SLP173 P0000 T01000078





000
SAUS44 KLIX 151337
MTRBVE
SPECI KBVE 151336Z AUTO 33023G32KT 4SM -RA BR BKN015 OVC020 10/08
A3004 RMK AO2 PK WND 33032/1335 RAB02 P0000 T01000078





000
SAUS44 KLIX 151323
MTRBVE
SPECI KBVE 151322Z AUTO 33022G30KT 2 1/2SM -RA BR SCT015 OVC020
10/08 A3004 RMK AO2 PK WND 33030/1322 VIS 1 1/2V4 RAB02 P0000
T01000083





000
SAUS44 KLIX 151319 COR
MTRBVE
SPECI KBVE 151315Z AUTO 33020G29KT 3SM -RA BR BKN014 OVC020 11/09
A3003 RMK AO2 PK WND 33029/1312 RAB02 P0000 T01060089





000
SAUS44 KLIX 151317 COR
MTRBVE
SPECI KBVE 151315Z AUTO 33020G29KT 3SM -RA BR BKN014 OVC020 11/09
A3003 RMK AO2 PK WND 33029/1312 RAB02 P0000 T01060089





000
SAUS44 KLIX 151252
MTRBVE
METAR KBVE 151251Z AUTO 33018G28KT 5SM BR OVC017 11/09 A3002 RMK AO2
PK WND 33036/1218 RAB1157E07B24E46 SLP165 P0000 T01110089





000
SAUS44 KLIX 151153
MTRBVE
METAR KBVE 151151Z AUTO 33021G31KT 10SM OVC016 12/09 A2998 RMK AO2
PK WND 32032/1139 SLP150 6//// 7//// T01220089 10200 20122 53025 $





    US Dept of Commerce
    National Oceanic and Atmospheric Administration
    National Weather Service
    1325 East West Highway
    Silver Spring, MD 20910
    Page Author: NWS Internet Services Team
Disclaimer
Information Quality
Credits
Glossary
Privacy Policy
Freedom of Information Act (FOIA)
About Us
Career Opportunities